createdAt,value
2023-03-06T00:00:58.655Z,69.52
2023-03-06T00:06:01.974Z,70.05
2023-03-06T00:11:04.935Z,70.00
2023-03-06T00:16:08.086Z,70.72
2023-03-06T00:21:11.062Z,70.32
2023-03-06T00:26:13.901Z,70.82
2023-03-06T00:31:17.972Z,70.35
2023-03-06T00:36:20.861Z,70.24
2023-03-06T00:41:23.719Z,70.84
2023-03-06T00:46:26.665Z,70.00
2023-03-06T00:51:29.463Z,71.43
2023-03-06T00:56:32.274Z,71.72
2023-03-06T01:01:35.196Z,71.85
2023-03-06T01:06:38.410Z,71.66
2023-03-06T01:11:41.264Z,71.09
2023-03-06T01:16:44.178Z,71.00
2023-03-06T01:21:47.045Z,71.23
2023-03-06T01:26:50.147Z,72.03
2023-03-06T01:31:53.506Z,71.94
2023-03-06T01:36:56.544Z,71.54
2023-03-06T01:41:59.354Z,72.24
2023-03-06T01:47:02.669Z,72.13
2023-03-06T01:52:14.784Z,72.83
2023-03-06T01:57:22.705Z,73.24
2023-03-06T02:02:26.392Z,72.25
2023-03-06T02:07:30.421Z,72.13
2023-03-06T02:12:33.837Z,73.20
2023-03-06T02:17:37.532Z,72.78
2023-03-06T02:23:20.087Z,73.53
2023-03-06T02:28:24.335Z,74.03
2023-03-06T02:33:29.598Z,74.18
2023-03-06T02:38:37.112Z,74.03
2023-03-06T02:43:44.030Z,75.14
2023-03-06T02:48:47.041Z,75.00
2023-03-06T02:53:50.163Z,75.21
2023-03-06T02:58:53.025Z,73.59
2023-03-06T03:03:56.382Z,74.28
2023-03-06T03:08:59.761Z,73.74
2023-03-06T03:14:04.059Z,74.63
2023-03-06T03:19:07.173Z,73.94
2023-03-06T03:24:10.411Z,73.76
2023-03-06T03:29:13.258Z,73.92
2023-03-06T03:34:17.230Z,74.32
2023-03-06T03:39:20.392Z,73.82
2023-03-06T03:44:23.269Z,73.40
2023-03-06T03:49:26.623Z,74.32
2023-03-06T03:54:30.430Z,74.59
2023-03-06T03:59:33.885Z,74.13
2023-03-06T04:04:45.918Z,73.24
2023-03-06T04:09:49.441Z,72.81
2023-03-06T04:14:53.864Z,73.67
2023-03-06T04:19:57.780Z,74.88
2023-03-06T04:25:00.890Z,74.94
2023-03-06T04:30:05.510Z,75.66
2023-03-06T04:35:10.537Z,74.75
2023-03-06T04:40:28.367Z,73.59
2023-03-06T04:45:32.847Z,74.04
2023-03-06T04:50:38.275Z,74.05
2023-03-06T04:55:41.062Z,74.35
2023-03-06T05:00:43.944Z,73.22
2023-03-06T05:05:46.768Z,73.68
2023-03-06T05:10:56.997Z,74.24
2023-03-06T05:16:05.199Z,73.75
2023-03-06T05:21:08.258Z,73.31
2023-03-06T05:26:13.348Z,73.10
2023-03-06T05:31:34.989Z,72.50
2023-03-06T05:36:38.061Z,72.86
2023-03-06T05:41:41.544Z,72.71
2023-03-06T05:46:44.685Z,72.33
2023-03-06T05:51:47.872Z,71.52
2023-03-06T05:56:51.489Z,71.26
2023-03-06T06:01:56.095Z,71.05
2023-03-06T06:07:01.818Z,70.14
2023-03-06T06:12:05.070Z,69.98
2023-03-06T06:17:08.152Z,70.42
2023-03-06T06:22:11.933Z,69.89
2023-03-06T06:27:15.168Z,69.73
2023-03-06T06:32:18.953Z,70.02
2023-03-06T06:37:21.980Z,69.83
2023-03-06T06:42:33.748Z,69.71
2023-03-06T06:47:42.656Z,69.62
2023-03-06T06:52:49.777Z,69.00
2023-03-06T06:57:53.622Z,68.47
2023-03-06T07:02:56.545Z,68.14
2023-03-06T07:07:59.317Z,68.01
2023-03-06T07:18:23.422Z,67.16
2023-03-06T07:23:26.933Z,66.82
2023-03-06T07:28:37.614Z,66.64
2023-03-06T07:33:54.897Z,65.39
2023-03-06T07:39:05.896Z,65.21
2023-03-06T07:44:10.835Z,65.30
2023-03-06T07:49:14.193Z,64.87
2023-03-06T07:54:17.284Z,64.14
2023-03-06T07:59:20.207Z,63.45
2023-03-06T08:04:28.356Z,64.60
2023-03-06T08:09:32.473Z,64.60
2023-03-06T08:14:35.918Z,64.26
2023-03-06T08:19:39.108Z,63.29
2023-03-06T08:24:42.097Z,63.84
2023-03-06T08:29:44.841Z,63.78
2023-03-06T08:34:49.402Z,63.59
2023-03-06T08:39:53.273Z,63.99
2023-03-06T08:44:56.430Z,63.66
2023-03-06T08:50:00.720Z,63.64
2023-03-06T08:55:07.442Z,63.95
2023-03-06T09:00:12.965Z,63.53
2023-03-06T09:05:16.044Z,63.84
2023-03-06T09:10:21.919Z,63.87
2023-03-06T09:15:25.219Z,62.85
2023-03-06T09:20:27.986Z,63.22
2023-03-06T09:25:30.981Z,61.57
2023-03-06T09:30:33.884Z,59.86
2023-03-06T09:35:45.436Z,59.44
2023-03-06T09:51:39.747Z,58.53
2023-03-06T09:56:49.166Z,57.62
2023-03-06T10:02:16.486Z,57.20
2023-03-06T10:07:24.077Z,57.95
2023-03-06T10:12:32.893Z,58.10
2023-03-06T10:17:40.213Z,56.92
2023-03-06T10:23:01.212Z,58.18
2023-03-06T10:38:48.898Z,55.85
2023-03-06T10:49:37.815Z,55.42
2023-03-06T10:54:43.437Z,56.22
2023-03-06T11:06:35.217Z,54.54
2023-03-06T11:11:38.261Z,53.90
2023-03-06T11:16:41.282Z,54.28
2023-03-06T11:22:01.740Z,53.76
2023-03-06T11:32:32.216Z,52.75
2023-03-06T11:37:49.810Z,52.17
2023-03-06T11:43:35.361Z,51.56
2023-03-06T11:48:53.443Z,51.41
2023-03-06T11:54:00.136Z,50.73
2023-03-06T12:25:49.357Z,52.74
2023-03-06T12:42:22.706Z,50.84
2023-03-06T12:47:29.383Z,50.38
2023-03-06T12:52:34.124Z,51.08
2023-03-06T12:57:36.903Z,50.21
2023-03-06T13:08:31.774Z,51.41
2023-03-06T13:13:44.614Z,51.29
2023-03-06T13:18:51.768Z,51.01
2023-03-06T13:24:04.815Z,51.33
2023-03-06T13:29:48.401Z,51.21
2023-03-06T13:34:52.086Z,51.61
2023-03-06T14:01:33.025Z,53.97
2023-03-06T14:11:54.974Z,54.82
2023-03-06T14:16:59.626Z,55.37
2023-03-06T14:22:03.989Z,55.73
2023-03-06T14:27:07.331Z,55.26
2023-03-06T14:32:11.214Z,55.38
2023-03-06T14:37:22.113Z,55.66
2023-03-06T14:42:28.824Z,55.76
2023-03-06T14:47:35.256Z,56.10
2023-03-06T14:52:39.367Z,56.13
2023-03-06T14:57:43.459Z,56.02
2023-03-06T15:02:47.270Z,56.79
2023-03-06T15:07:53.983Z,56.80
2023-03-06T15:13:07.672Z,57.26
2023-03-06T15:18:29.011Z,57.46
2023-03-06T15:23:40.817Z,57.84
2023-03-06T15:28:43.626Z,57.96
2023-03-06T15:39:43.448Z,58.13
2023-03-06T15:44:50.696Z,58.03
2023-03-06T15:49:53.973Z,57.61
2023-03-06T15:54:56.871Z,58.23
2023-03-06T16:00:01.094Z,57.67
2023-03-06T16:05:27.534Z,57.91
2023-03-06T16:10:33.204Z,58.28
2023-03-06T16:15:41.643Z,58.04
2023-03-06T16:20:45.105Z,58.54
2023-03-06T16:25:50.479Z,57.94
2023-03-06T16:30:53.301Z,59.04
2023-03-06T16:35:56.239Z,58.86
2023-03-06T16:40:59.188Z,59.22
2023-03-06T16:46:07.621Z,58.51
2023-03-06T16:51:16.972Z,58.49
2023-03-06T16:56:20.888Z,58.57
2023-03-06T17:01:23.994Z,58.30
2023-03-06T17:06:26.965Z,58.90
2023-03-06T17:11:30.905Z,59.28
2023-03-06T17:16:37.080Z,59.55
2023-03-06T17:21:40.512Z,59.68
2023-03-06T17:26:44.546Z,59.86
2023-03-06T17:31:47.685Z,60.45
2023-03-06T17:36:50.987Z,60.99
2023-03-06T17:41:54.034Z,61.29
2023-03-06T17:46:56.925Z,61.40
2023-03-06T17:52:01.141Z,61.80
2023-03-06T17:57:05.885Z,62.09
2023-03-06T18:02:10.170Z,62.39
2023-03-06T18:07:13.275Z,62.50
2023-03-06T18:12:16.547Z,62.04
2023-03-06T18:17:20.461Z,62.56
2023-03-06T18:22:23.795Z,62.83
2023-03-06T18:27:26.617Z,62.88
2023-03-06T18:32:29.480Z,63.12
2023-03-06T18:37:32.205Z,62.78
2023-03-06T18:42:34.974Z,63.07
2023-03-06T18:47:37.791Z,63.36
2023-03-06T18:52:44.529Z,64.03
2023-03-06T18:57:47.360Z,64.76
2023-03-06T19:02:50.449Z,65.05
2023-03-06T19:07:53.417Z,64.83
2023-03-06T19:12:56.200Z,64.82
2023-03-06T19:17:59.066Z,64.97
2023-03-06T19:23:01.986Z,64.98
2023-03-06T19:28:05.282Z,64.42
2023-03-06T19:33:09.252Z,64.14
2023-03-06T19:38:12.474Z,63.91
2023-03-06T19:43:15.374Z,64.06
2023-03-06T19:48:18.258Z,64.28
2023-03-06T19:53:21.862Z,65.04
2023-03-06T19:58:24.539Z,63.77
2023-03-06T20:03:27.474Z,63.17
2023-03-06T20:08:30.453Z,63.24
2023-03-06T20:13:33.388Z,63.41
2023-03-06T20:18:36.153Z,63.17
2023-03-06T20:23:39.142Z,63.32
2023-03-06T20:28:43.019Z,63.13
2023-03-06T20:33:49.360Z,63.44
2023-03-06T20:38:52.138Z,63.74
2023-03-06T20:43:54.996Z,64.20
2023-03-06T20:48:59.720Z,64.02
2023-03-06T20:54:05.767Z,64.09
2023-03-06T20:59:11.728Z,63.87
2023-03-06T21:04:15.961Z,63.97
2023-03-06T21:09:18.754Z,63.81
2023-03-06T21:14:21.503Z,63.71
2023-03-06T21:19:24.312Z,63.42
2023-03-06T21:24:27.374Z,63.01
2023-03-06T21:29:30.869Z,63.39
2023-03-06T21:34:33.655Z,63.33
2023-03-06T21:39:36.489Z,63.12
2023-03-06T21:44:39.656Z,62.83
2023-03-06T21:49:42.509Z,62.70
2023-03-06T21:54:45.241Z,62.95
2023-03-06T21:59:48.183Z,62.09
2023-03-06T22:04:52.736Z,61.77
2023-03-06T22:09:55.587Z,61.65
2023-03-06T22:14:58.490Z,61.10
2023-03-06T22:20:01.319Z,61.09
2023-03-06T22:25:06.614Z,61.21
2023-03-06T22:30:09.953Z,61.12
2023-03-06T22:35:12.870Z,60.77
2023-03-06T22:40:15.939Z,60.33
2023-03-06T22:45:18.719Z,61.12
2023-03-06T22:50:21.506Z,62.30
2023-03-06T22:55:24.280Z,62.80
2023-03-06T23:00:27.353Z,63.09
2023-03-06T23:05:30.135Z,63.15
2023-03-06T23:10:37.958Z,63.50
2023-03-06T23:16:03.866Z,63.76
2023-03-06T23:21:26.587Z,64.08
2023-03-06T23:26:49.519Z,63.85
2023-03-06T23:31:52.230Z,64.04
2023-03-06T23:36:55.029Z,63.46
2023-03-06T23:41:58.443Z,63.34
2023-03-06T23:47:01.249Z,63.49
2023-03-06T23:52:04.548Z,63.26
2023-03-06T23:57:07.299Z,63.30
